createdAt,value
2018-09-01T03:01:05.389Z,996.27
2018-09-01T03:02:06.143Z,996.26
2018-09-01T03:03:05.984Z,996.29
2018-09-01T03:04:06.534Z,996.29
2018-09-01T03:05:08.011Z,996.33
2018-09-01T03:06:04.262Z,996.32
2018-09-01T03:07:04.226Z,996.40
2018-09-01T03:08:04.331Z,996.37
2018-09-01T03:09:04.489Z,996.45
2018-09-01T03:10:04.641Z,996.44
2018-09-01T03:11:04.777Z,996.46
2018-09-01T03:12:04.929Z,996.47
2018-09-01T03:13:05.137Z,996.49
2018-09-01T03:14:05.204Z,996.44
2018-09-01T03:15:05.464Z,996.44
2018-09-01T03:16:05.739Z,996.46
2018-09-01T03:17:05.757Z,996.45
2018-09-01T03:18:05.952Z,996.47
2018-09-01T03:19:06.105Z,996.46
2018-09-01T03:20:06.374Z,996.48
2018-09-01T03:21:06.517Z,996.51
2018-09-01T03:22:06.594Z,996.51
2018-09-01T03:23:06.927Z,996.50
2018-09-01T03:24:06.995Z,996.54
2018-09-01T03:25:07.125Z,996.51
2018-09-01T03:26:07.426Z,996.52
2018-09-01T03:27:07.455Z,996.54
2018-09-01T03:28:07.764Z,996.56
2018-09-01T03:29:07.756Z,996.56
2018-09-01T03:30:07.890Z,996.56
2018-09-01T03:31:08.022Z,996.51
2018-09-01T03:32:08.282Z,996.51
2018-09-01T03:33:08.359Z,996.55
2018-09-01T03:34:08.596Z,996.52
2018-09-01T03:35:08.776Z,996.50
2018-09-01T03:36:09.030Z,996.52
2018-09-01T03:37:09.248Z,996.45
2018-09-01T03:38:09.276Z,996.49
2018-09-01T03:39:09.573Z,996.48
2018-09-01T03:40:09.997Z,996.49
2018-09-01T03:41:10.025Z,996.49
2018-09-01T03:42:10.067Z,996.41
2018-09-01T03:43:10.343Z,996.41
2018-09-01T03:44:10.243Z,996.43
2018-09-01T03:45:10.577Z,996.45
2018-09-01T03:46:10.604Z,996.38
2018-09-01T03:47:10.843Z,996.41
2018-09-01T03:48:11.119Z,996.44
2018-09-01T03:49:11.199Z,996.45
2018-09-01T03:50:11.358Z,996.49
2018-09-01T03:51:11.522Z,996.48
2018-09-01T03:52:11.807Z,996.53
2018-09-01T03:53:11.874Z,996.53
2018-09-01T03:54:11.927Z,996.56
2018-09-01T03:55:12.106Z,996.57
2018-09-01T03:56:12.489Z,996.58
2018-09-01T03:57:12.551Z,996.60
2018-09-01T03:58:12.847Z,996.61
2018-09-01T03:59:12.936Z,996.66
2018-09-01T04:00:13.110Z,996.68
2018-09-01T04:01:13.487Z,996.68
2018-09-01T04:02:13.498Z,996.70
2018-09-01T04:03:13.562Z,996.71
2018-09-01T04:04:13.718Z,996.74
2018-09-01T04:05:13.921Z,996.73
2018-09-01T04:06:14.116Z,996.75
2018-09-01T04:07:14.152Z,996.69
2018-09-01T04:08:14.546Z,996.75
2018-09-01T04:09:14.671Z,996.76
2018-09-01T04:10:14.750Z,996.74
2018-09-01T04:11:15.612Z,996.77
2018-09-01T04:12:15.434Z,996.73
2018-09-01T04:13:15.218Z,996.76
2018-09-01T04:14:15.509Z,996.69
2018-09-01T04:15:15.796Z,996.72
2018-09-01T04:16:15.964Z,996.72
2018-09-01T04:17:16.189Z,996.71
2018-09-01T04:18:16.410Z,996.69
2018-09-01T04:19:16.319Z,996.71
2018-09-01T04:20:16.566Z,996.71
2018-09-01T04:21:16.717Z,996.71
2018-09-01T04:22:17.163Z,996.71
2018-09-01T04:23:17.287Z,996.70
2018-09-01T04:24:17.350Z,996.69
2018-09-01T04:25:17.412Z,996.73
2018-09-01T04:26:17.452Z,996.71
2018-09-01T04:27:17.654Z,996.71
2018-09-01T04:28:17.935Z,996.71
2018-09-01T04:29:18.049Z,996.72
2018-09-01T04:30:18.158Z,996.73
2018-09-01T04:31:18.344Z,996.73
2018-09-01T04:32:18.471Z,996.69
2018-09-01T04:33:18.735Z,996.70
2018-09-01T04:34:18.786Z,996.69
2018-09-01T04:35:19.107Z,996.72
2018-09-01T04:36:19.323Z,996.76
2018-09-01T04:37:19.383Z,996.78
2018-09-01T04:38:19.540Z,996.81
2018-09-01T04:39:19.605Z,996.86
2018-09-01T04:40:19.936Z,996.88
2018-09-01T04:41:20.096Z,996.89
2018-09-01T04:42:20.098Z,996.87
2018-09-01T04:43:20.465Z,996.91
2018-09-01T04:44:20.566Z,996.91
2018-09-01T04:45:20.788Z,996.94
2018-09-01T04:46:20.916Z,996.89
2018-09-01T04:47:21.069Z,996.96
2018-09-01T04:48:21.280Z,996.94
2018-09-01T04:49:21.425Z,997.03
2018-09-01T04:50:21.731Z,996.99
2018-09-01T04:51:22.680Z,997.01
2018-09-01T04:52:21.771Z,996.98
2018-09-01T04:53:22.102Z,997.00
2018-09-01T04:56:06.154Z,996.96
2018-09-01T04:57:06.533Z,997.00
2018-09-01T04:58:06.991Z,997.01
2018-09-01T04:59:08.157Z,996.98
2018-09-01T05:00:07.624Z,996.97
2018-09-01T05:01:04.957Z,997.01
2018-09-01T05:02:04.996Z,996.98
2018-09-01T05:03:05.127Z,997.00
2018-09-01T05:04:05.193Z,996.98
2018-09-01T05:05:05.656Z,996.95
2018-09-01T05:06:05.552Z,996.99
2018-09-01T05:07:05.840Z,996.96
2018-09-01T05:08:06.337Z,996.95
2018-09-01T05:09:06.038Z,996.93
2018-09-01T05:10:06.261Z,996.95
2018-09-01T05:11:06.342Z,996.91
2018-09-01T05:12:06.814Z,996.96
2018-09-01T05:13:06.624Z,996.94
2018-09-01T05:14:06.723Z,996.93
2018-09-01T05:15:06.979Z,996.92
2018-09-01T05:16:41.637Z,996.94
2018-09-01T05:17:10.086Z,996.90
2018-09-01T05:18:30.657Z,996.90
2018-09-01T05:19:07.948Z,996.91
2018-09-01T05:20:07.994Z,996.93
2018-09-01T05:21:08.060Z,996.94
2018-09-01T05:22:08.671Z,996.94
2018-09-01T05:27:41.194Z,996.91
2018-09-01T05:29:41.672Z,996.92
2018-09-01T05:30:41.979Z,996.94
2018-09-01T05:31:43.955Z,996.97
2018-09-01T05:33:42.684Z,997.04
2018-09-01T05:38:15.095Z,997.03
2018-09-01T05:39:18.712Z,997.04
2018-09-01T05:40:14.697Z,997.07
2018-09-01T05:41:15.563Z,997.06
2018-09-01T05:42:15.441Z,997.05
2018-09-01T05:43:15.486Z,997.09
2018-09-01T05:44:16.249Z,997.12
2018-09-01T05:45:14.677Z,997.12
2018-09-01T05:46:13.124Z,997.15
2018-09-01T05:47:13.240Z,997.13
2018-09-01T05:48:13.703Z,997.13
2018-09-01T05:51:58.216Z,997.16
2018-09-01T05:55:46.543Z,997.14
2018-09-01T06:04:11.856Z,997.21
2018-09-01T06:07:51.218Z,997.24
2018-09-01T06:12:27.317Z,997.25
2018-09-01T06:13:28.757Z,997.28
2018-09-01T06:14:28.006Z,997.31
2018-09-01T06:15:28.324Z,997.31
2018-09-01T06:16:27.730Z,997.33
2018-09-01T06:17:28.193Z,997.28
2018-09-01T06:18:26.032Z,997.32
2018-09-01T06:19:26.241Z,997.33
2018-09-01T06:20:26.394Z,997.32
2018-09-01T06:21:26.558Z,997.31
2018-09-01T06:22:26.751Z,997.28
2018-09-01T06:23:26.813Z,997.24
2018-09-01T06:24:26.967Z,997.25
2018-09-01T06:25:27.219Z,997.24
2018-09-01T06:26:27.270Z,997.21
2018-09-01T06:27:27.486Z,997.24
2018-09-01T06:28:27.813Z,997.23
2018-09-01T06:29:27.833Z,997.26
2018-09-01T06:30:28.084Z,997.27
2018-09-01T06:31:28.320Z,997.28
2018-09-01T06:32:28.375Z,997.25
2018-09-01T06:33:28.575Z,997.25
2018-09-01T06:34:28.895Z,997.27
2018-09-01T06:35:28.991Z,997.29
2018-09-01T06:36:29.062Z,997.26
2018-09-01T06:37:29.303Z,997.30
2018-09-01T06:38:29.394Z,997.29
2018-09-01T06:39:29.625Z,997.31
2018-09-01T06:40:29.729Z,997.32
2018-09-01T06:41:29.903Z,997.28
2018-09-01T06:42:30.120Z,997.29
2018-09-01T06:43:30.318Z,997.32
2018-09-01T06:44:30.389Z,997.32
2018-09-01T06:45:30.634Z,997.38
2018-09-01T06:46:30.844Z,997.37
2018-09-01T06:47:30.940Z,997.35
2018-09-01T06:48:31.100Z,997.32
2018-09-01T06:49:31.315Z,997.29
2018-09-01T06:50:31.508Z,997.27
2018-09-01T06:51:31.730Z,997.31
2018-09-01T06:52:31.790Z,997.27
2018-09-01T06:53:31.986Z,997.26
2018-09-01T06:54:32.131Z,997.27
2018-09-01T06:55:32.332Z,997.31
2018-09-01T06:56:32.514Z,997.30
2018-09-01T06:57:32.660Z,997.32
2018-09-01T06:58:32.843Z,997.32
2018-09-01T06:59:33.051Z,997.36
2018-09-01T07:00:33.155Z,997.35
2018-09-01T07:01:33.325Z,997.40
2018-09-01T07:02:33.481Z,997.41
2018-09-01T07:03:33.573Z,997.38
2018-09-01T07:04:33.824Z,997.40
2018-09-01T07:05:33.993Z,997.37
2018-09-01T07:06:34.122Z,997.39
2018-09-01T07:07:34.337Z,997.38
2018-09-01T07:08:34.500Z,997.37
2018-09-01T07:09:34.686Z,997.43
2018-09-01T07:10:34.914Z,997.42
2018-09-01T07:11:34.904Z,997.41
2018-09-01T07:12:35.166Z,997.43
2018-09-01T07:13:35.275Z,997.42
2018-09-01T07:14:35.423Z,997.44
2018-09-01T07:15:35.634Z,997.47
2018-09-01T07:16:35.824Z,997.47
2018-09-01T07:17:35.965Z,997.48
2018-09-01T07:18:36.206Z,997.54
2018-09-01T07:19:36.326Z,997.51
2018-09-01T07:20:36.444Z,997.49
2018-09-01T07:21:36.609Z,997.54
2018-09-01T07:22:36.799Z,997.52
2018-09-01T07:23:36.906Z,997.50
2018-09-01T07:24:37.095Z,997.53
2018-09-01T07:25:37.279Z,997.57
2018-09-01T07:26:37.389Z,997.62
2018-09-01T07:27:37.677Z,997.67
2018-09-01T07:28:37.787Z,997.67
2018-09-01T07:29:37.946Z,997.69
2018-09-01T07:30:38.176Z,997.73
2018-09-01T07:31:38.599Z,997.71
2018-09-01T07:32:38.465Z,997.77
2018-09-01T07:33:38.619Z,997.74
2018-09-01T07:34:38.772Z,997.75
2018-09-01T07:35:38.940Z,997.77
2018-09-01T07:36:39.211Z,997.69
2018-09-01T07:37:39.262Z,997.71
2018-09-01T07:38:39.492Z,997.69
2018-09-01T07:39:39.579Z,997.70
2018-09-01T07:40:39.765Z,997.74
2018-09-01T07:41:40.104Z,997.76
2018-09-01T07:42:40.128Z,997.78
2018-09-01T07:43:40.323Z,997.82
2018-09-01T07:44:40.437Z,997.82
2018-09-01T07:45:40.704Z,997.85
2018-09-01T07:46:40.880Z,997.85
2018-09-01T07:47:41.052Z,997.85
2018-09-01T07:48:41.178Z,997.85
2018-09-01T07:49:41.396Z,997.78
2018-09-01T07:50:41.604Z,997.85
2018-09-01T07:51:41.716Z,997.80
2018-09-01T07:52:41.924Z,997.75
2018-09-01T07:53:42.066Z,997.78
2018-09-01T07:54:42.220Z,997.87
2018-09-01T07:55:42.337Z,997.89
2018-09-01T07:56:42.497Z,997.95
2018-09-01T07:57:42.657Z,997.96
2018-09-01T07:58:42.880Z,998.01
2018-09-01T07:59:42.985Z,997.97
2018-09-01T08:00:43.201Z,997.97
2018-09-01T08:01:43.380Z,998.00
2018-09-01T08:02:43.452Z,998.04
2018-09-01T08:03:43.626Z,998.10
2018-09-01T08:04:43.769Z,998.11
2018-09-01T08:05:44.828Z,998.13
2018-09-01T08:06:44.237Z,998.17
2018-09-01T08:07:44.478Z,998.19
2018-09-01T08:08:44.516Z,998.24
2018-09-01T08:09:44.804Z,998.25
2018-09-01T08:10:44.991Z,998.25
2018-09-01T08:11:45.830Z,998.24
2018-09-01T08:12:45.284Z,998.27
2018-09-01T08:13:45.542Z,998.26
2018-09-01T08:14:45.625Z,998.33
2018-09-01T08:15:45.767Z,998.27
2018-09-01T08:16:46.031Z,998.29
2018-09-01T08:17:46.120Z,998.31
2018-09-01T08:18:46.253Z,998.32
2018-09-01T08:19:46.448Z,998.31
2018-09-01T08:20:46.609Z,998.37
2018-09-01T08:21:46.832Z,998.33
2018-09-01T08:22:46.933Z,998.34
2018-09-01T08:23:47.112Z,998.39
2018-09-01T08:24:47.196Z,998.36
2018-09-01T08:25:47.461Z,998.33
2018-09-01T08:26:47.634Z,998.34
2018-09-01T08:27:47.790Z,998.32
2018-09-01T08:28:47.939Z,998.29
2018-09-01T08:29:48.182Z,998.31
2018-09-01T08:30:48.257Z,998.34
2018-09-01T08:31:48.519Z,998.36
2018-09-01T08:32:48.653Z,998.39
2018-09-01T08:33:48.908Z,998.35
2018-09-01T08:34:49.044Z,998.36
2018-09-01T08:35:49.210Z,998.38
2018-09-01T08:36:49.423Z,998.40
2018-09-01T08:37:49.424Z,998.41
2018-09-01T08:38:49.736Z,998.44
2018-09-01T08:39:49.806Z,998.46
2018-09-01T08:40:50.005Z,998.46
2018-09-01T08:41:50.236Z,998.47
2018-09-01T08:42:50.324Z,998.43
2018-09-01T08:43:50.521Z,998.47
2018-09-01T08:44:50.675Z,998.45
2018-09-01T08:45:50.814Z,998.42
2018-09-01T08:46:50.927Z,998.48
2018-09-01T08:47:51.107Z,998.53
2018-09-01T08:48:51.301Z,998.42
2018-09-01T08:49:51.479Z,998.43
2018-09-01T08:50:51.714Z,998.45
2018-09-01T08:51:51.897Z,998.47
2018-09-01T08:52:52.178Z,998.45
2018-09-01T08:53:52.219Z,998.51
2018-09-01T08:54:52.344Z,998.51
2018-09-01T08:55:52.554Z,998.55
2018-09-01T08:56:52.669Z,998.54
2018-09-01T08:57:52.900Z,998.52
2018-09-01T08:58:53.004Z,998.53
2018-09-01T08:59:53.221Z,998.55
2018-09-01T09:00:53.416Z,998.55
2018-09-01T09:01:53.559Z,998.60
2018-09-01T09:02:53.698Z,998.64
2018-09-01T09:03:53.963Z,998.66
2018-09-01T09:04:54.102Z,998.67
2018-09-01T09:05:54.281Z,998.82
2018-09-01T09:06:54.372Z,998.92
2018-09-01T09:07:54.539Z,999.05
2018-09-01T09:08:54.687Z,999.37
2018-09-01T09:09:54.864Z,999.63
2018-09-01T09:10:55.037Z,999.42
2018-09-01T09:11:55.357Z,999.10
2018-09-01T09:12:55.497Z,998.91
2018-09-01T09:13:55.659Z,998.79
2018-09-01T09:14:55.817Z,998.73
2018-09-01T09:15:56.061Z,998.74
2018-09-01T09:16:56.212Z,998.71
2018-09-01T09:17:56.303Z,998.72
2018-09-01T09:18:56.468Z,998.74
2018-09-01T09:19:56.668Z,998.73
2018-09-01T09:20:56.868Z,998.73
2018-09-01T09:21:56.984Z,998.75
2018-09-01T09:22:57.205Z,998.77
2018-09-01T09:23:57.416Z,998.80
2018-09-01T09:24:57.616Z,998.78
2018-09-01T09:25:57.744Z,998.76
2018-09-01T09:26:57.884Z,998.70
2018-09-01T09:27:58.128Z,998.82
2018-09-01T09:28:58.275Z,998.81
2018-09-01T09:29:58.454Z,998.77
2018-09-01T09:30:58.654Z,998.77
2018-09-01T09:31:58.810Z,998.85
2018-09-01T09:32:58.906Z,998.77
2018-09-01T09:33:59.220Z,998.84
2018-09-01T09:34:59.275Z,998.88
2018-09-01T09:35:59.490Z,998.87
2018-09-01T09:36:59.647Z,998.88
2018-09-01T09:37:59.823Z,998.99
2018-09-01T09:39:00.010Z,999.03
2018-09-01T09:40:00.138Z,999.00
2018-09-01T09:41:00.328Z,998.84
2018-09-01T09:42:00.624Z,998.88
2018-09-01T09:43:00.673Z,998.79
2018-09-01T09:44:00.805Z,998.55
2018-09-01T09:45:00.979Z,998.42
2018-09-01T09:46:01.198Z,998.34
2018-09-01T09:47:01.341Z,998.66
2018-09-01T09:48:02.351Z,998.67
2018-09-01T09:49:01.745Z,998.77
2018-09-01T09:50:01.900Z,998.75
2018-09-01T09:51:02.150Z,998.72
2018-09-01T09:52:02.257Z,998.70
2018-09-01T09:53:02.387Z,998.51
2018-09-01T09:54:02.510Z,998.81
2018-09-01T09:55:02.695Z,998.74
2018-09-01T09:56:02.948Z,998.75
2018-09-01T09:57:03.111Z,998.72
2018-09-01T09:58:03.228Z,998.74
2018-09-01T09:59:03.378Z,998.74
2018-09-01T10:00:03.610Z,998.72
2018-09-01T10:01:03.812Z,998.71
2018-09-01T10:02:03.941Z,998.39
2018-09-01T10:03:04.124Z,998.28
2018-09-01T10:04:04.285Z,998.29
2018-09-01T10:05:04.534Z,998.27
2018-09-01T10:06:04.701Z,998.22
2018-09-01T10:07:04.770Z,998.22
2018-09-01T10:08:04.953Z,998.43
2018-09-01T10:09:05.193Z,998.31
2018-09-01T10:10:05.418Z,998.54
2018-09-01T10:11:05.638Z,998.21
2018-09-01T10:12:05.716Z,998.26
2018-09-01T10:13:05.844Z,998.22
2018-09-01T10:14:06.032Z,998.20
2018-09-01T10:15:06.213Z,998.13
2018-09-01T10:16:06.367Z,998.06
2018-09-01T10:17:06.595Z,998.08
2018-09-01T10:18:06.784Z,998.55
2018-09-01T10:19:06.958Z,998.54
2018-09-01T10:20:07.223Z,998.23
2018-09-01T10:21:07.403Z,998.08
2018-09-01T10:22:07.585Z,998.05
2018-09-01T10:23:07.680Z,997.96
2018-09-01T10:24:07.816Z,997.96
2018-09-01T10:25:08.106Z,997.90
2018-09-01T10:26:08.250Z,997.92
2018-09-01T10:27:08.488Z,998.46
2018-09-01T10:28:08.605Z,998.52
2018-09-01T10:29:08.854Z,998.55
2018-09-01T10:30:09.030Z,998.49
2018-09-01T10:31:09.239Z,998.37
2018-09-01T10:32:09.343Z,998.21
2018-09-01T10:33:09.561Z,998.02
2018-09-01T10:34:09.710Z,998.28
2018-09-01T10:35:09.844Z,998.31
2018-09-01T10:36:09.994Z,998.29
2018-09-01T10:37:10.181Z,998.15
2018-09-01T10:38:10.361Z,998.27
2018-09-01T10:39:10.562Z,997.93
2018-09-01T10:40:10.738Z,998.12
2018-09-01T10:41:10.925Z,998.03
2018-09-01T10:42:11.129Z,997.98
2018-09-01T10:43:11.244Z,998.05
2018-09-01T10:44:11.405Z,998.04
2018-09-01T10:45:11.670Z,998.00
2018-09-01T10:46:11.802Z,998.03
2018-09-01T10:47:11.962Z,997.94
2018-09-01T10:48:12.191Z,997.87
2018-09-01T10:49:12.231Z,997.96
2018-09-01T10:50:12.493Z,997.94
2018-09-01T10:51:12.634Z,997.98
2018-09-01T10:52:12.810Z,998.31
2018-09-01T10:53:12.964Z,998.41
2018-09-01T10:54:13.078Z,998.34
2018-09-01T10:55:13.361Z,998.37
2018-09-01T10:56:13.438Z,998.35
2018-09-01T10:57:13.640Z,998.39
2018-09-01T10:58:13.808Z,998.36
2018-09-01T10:59:14.059Z,998.24
2018-09-01T11:00:14.172Z,998.29
2018-09-01T11:01:14.403Z,998.34
2018-09-01T11:02:14.524Z,998.31
2018-09-01T11:03:14.669Z,998.37
2018-09-01T11:04:14.835Z,998.33
2018-09-01T11:05:15.097Z,998.36
2018-09-01T11:06:15.162Z,998.36
2018-09-01T11:07:15.318Z,998.43
2018-09-01T11:08:15.556Z,998.51
2018-09-01T11:09:15.744Z,998.61
2018-09-01T11:10:15.943Z,998.66
2018-09-01T11:11:16.157Z,998.75
2018-09-01T11:12:16.237Z,998.80
2018-09-01T11:13:16.419Z,998.86
2018-09-01T11:14:16.731Z,998.89
2018-09-01T11:15:16.805Z,998.89
2018-09-01T11:16:17.031Z,998.87
2018-09-01T11:17:17.182Z,998.87
2018-09-01T11:18:17.385Z,998.93
2018-09-01T11:19:17.451Z,998.95
2018-09-01T11:20:17.692Z,998.98
2018-09-01T11:21:17.782Z,998.96
2018-09-01T11:22:18.024Z,998.84
2018-09-01T11:23:18.238Z,998.89
2018-09-01T11:24:18.402Z,998.93
2018-09-01T11:25:18.577Z,998.97
2018-09-01T11:26:18.761Z,999.00
2018-09-01T11:27:18.897Z,998.99
2018-09-01T11:28:19.024Z,998.98
2018-09-01T11:29:19.268Z,999.01
2018-09-01T11:30:19.516Z,998.96
2018-09-01T11:31:19.614Z,999.11
2018-09-01T11:32:19.859Z,999.14
2018-09-01T11:33:19.949Z,999.10
2018-09-01T11:34:20.201Z,999.08
2018-09-01T11:35:20.382Z,998.97
2018-09-01T11:36:20.464Z,998.92
2018-09-01T11:37:20.765Z,998.92
2018-09-01T11:38:20.925Z,998.90
2018-09-01T11:39:21.060Z,998.89
2018-09-01T11:40:21.246Z,998.80
2018-09-01T11:41:21.406Z,998.84
2018-09-01T11:42:21.703Z,998.76
2018-09-01T11:43:21.874Z,998.75
2018-09-01T11:44:21.958Z,998.71
2018-09-01T11:45:22.177Z,998.71
2018-09-01T11:46:22.363Z,998.68
2018-09-01T11:47:22.497Z,998.72
2018-09-01T11:48:22.705Z,998.73
2018-09-01T11:49:22.823Z,998.74
2018-09-01T11:50:23.051Z,998.76
2018-09-01T11:51:23.256Z,998.70
2018-09-01T11:52:23.507Z,998.67
2018-09-01T11:53:23.708Z,998.68
2018-09-01T11:54:23.713Z,998.62
2018-09-01T11:55:23.924Z,998.62
2018-09-01T11:56:24.156Z,998.59
2018-09-01T11:57:24.289Z,998.58
2018-09-01T11:58:24.508Z,998.58
2018-09-01T11:59:24.674Z,998.55
2018-09-01T12:00:24.832Z,998.53
2018-09-01T12:01:25.000Z,998.51
2018-09-01T12:02:25.264Z,998.50
2018-09-01T12:03:25.406Z,998.52
2018-09-01T12:04:25.590Z,998.50
2018-09-01T12:05:25.719Z,998.61
2018-09-01T12:06:25.919Z,998.63
2018-09-01T12:07:26.185Z,998.62
2018-09-01T12:08:26.322Z,998.62
2018-09-01T12:09:26.578Z,997.40
2018-09-01T12:10:26.713Z,997.52
2018-09-01T12:11:26.850Z,998.64
2018-09-01T12:12:27.131Z,998.53
2018-09-01T12:13:27.250Z,998.55
2018-09-01T12:14:27.422Z,998.53
2018-09-01T12:15:27.581Z,998.48
2018-09-01T12:16:27.826Z,998.56
2018-09-01T12:17:28.452Z,998.51
2018-09-01T12:18:28.191Z,998.55
2018-09-01T12:19:28.332Z,998.58
2018-09-01T12:20:28.464Z,998.55
2018-09-01T12:21:28.700Z,998.56
2018-09-01T12:22:28.852Z,998.53
2018-09-01T12:23:29.082Z,998.54
2018-09-01T12:24:29.265Z,998.50
2018-09-01T12:25:29.437Z,998.51
2018-09-01T12:26:29.636Z,998.49
2018-09-01T12:27:29.744Z,998.49
2018-09-01T12:28:29.978Z,998.50
2018-09-01T12:29:30.111Z,998.48
2018-09-01T12:30:30.306Z,998.51
2018-09-01T12:31:30.558Z,998.55
2018-09-01T12:32:30.835Z,998.50
2018-09-01T12:33:30.854Z,998.59
2018-09-01T12:34:31.038Z,998.64
2018-09-01T12:35:31.385Z,998.48
2018-09-01T12:36:31.544Z,998.43
2018-09-01T12:37:31.688Z,998.34
2018-09-01T12:38:31.842Z,997.96
2018-09-01T12:39:32.020Z,997.86
2018-09-01T12:40:32.184Z,997.83
2018-09-01T12:41:32.420Z,997.83
2018-09-01T12:42:32.540Z,997.78
2018-09-01T12:43:32.743Z,997.75
2018-09-01T12:44:32.911Z,997.74
2018-09-01T12:45:33.110Z,997.74
2018-09-01T12:46:33.243Z,997.74
2018-09-01T12:47:33.489Z,997.78
2018-09-01T12:48:33.587Z,997.74
2018-09-01T12:49:33.822Z,997.82
2018-09-01T12:50:33.966Z,997.80
2018-09-01T12:51:34.198Z,997.78
2018-09-01T12:52:34.328Z,997.75
2018-09-01T12:53:34.623Z,997.76
2018-09-01T12:54:34.808Z,997.77
2018-09-01T12:55:34.906Z,997.73
2018-09-01T12:56:35.082Z,997.78
2018-09-01T12:57:35.231Z,997.77
2018-09-01T12:58:35.440Z,997.76
2018-09-01T12:59:35.576Z,997.77
2018-09-01T13:00:35.783Z,997.79
2018-09-01T13:01:35.945Z,997.73
2018-09-01T13:02:36.129Z,997.82
2018-09-01T13:03:36.261Z,997.76
2018-09-01T13:04:36.466Z,997.80
2018-09-01T13:05:36.725Z,997.83
2018-09-01T13:06:36.902Z,997.81
2018-09-01T13:07:37.065Z,997.76
2018-09-01T13:08:37.206Z,997.75
2018-09-01T13:09:37.466Z,997.79
2018-09-01T13:10:37.587Z,997.80
2018-09-01T13:11:37.821Z,997.77
2018-09-01T13:12:38.136Z,997.70
2018-09-01T13:13:38.251Z,997.71
2018-09-01T13:14:38.366Z,997.67
2018-09-01T13:15:38.567Z,997.68
2018-09-01T13:16:38.725Z,997.62
2018-09-01T13:17:38.860Z,997.57
2018-09-01T13:18:39.069Z,997.60
2018-09-01T13:19:39.312Z,997.64
2018-09-01T13:20:39.397Z,997.64
2018-09-01T13:21:39.685Z,997.58
2018-09-01T13:22:39.823Z,997.58
2018-09-01T13:23:39.986Z,997.59
2018-09-01T13:24:40.217Z,997.59
2018-09-01T13:25:40.325Z,997.58
2018-09-01T13:26:40.605Z,997.56
2018-09-01T13:27:40.751Z,997.52
2018-09-01T13:28:40.931Z,997.53
2018-09-01T13:29:41.060Z,997.52
2018-09-01T13:30:41.319Z,997.55
2018-09-01T13:31:41.512Z,997.52
2018-09-01T13:32:41.599Z,997.51
2018-09-01T13:33:41.820Z,997.55
2018-09-01T13:34:41.981Z,997.53
2018-09-01T13:35:42.183Z,997.56
2018-09-01T13:36:42.417Z,997.53
2018-09-01T13:37:42.562Z,997.51
2018-09-01T13:38:42.711Z,997.45
2018-09-01T13:39:42.933Z,997.42
2018-09-01T13:40:43.055Z,997.44
2018-09-01T13:41:43.329Z,997.50
2018-09-01T13:42:43.434Z,997.51
2018-09-01T13:43:43.610Z,997.42
2018-09-01T13:44:43.910Z,997.44
2018-09-01T13:45:44.013Z,997.45
2018-09-01T13:46:44.208Z,997.42
2018-09-01T13:47:44.308Z,997.43
2018-09-01T13:48:44.520Z,997.44
2018-09-01T13:49:44.689Z,997.41
2018-09-01T13:50:44.922Z,997.36
2018-09-01T13:51:45.035Z,997.34
2018-09-01T13:52:45.237Z,997.28
2018-09-01T13:53:45.380Z,997.34
2018-09-01T13:54:45.577Z,997.27
2018-09-01T13:55:45.730Z,997.29
2018-09-01T13:56:45.907Z,997.27
2018-09-01T13:57:46.125Z,997.30
2018-09-01T13:58:46.221Z,997.32
2018-09-01T13:59:46.482Z,997.28
2018-09-01T14:00:46.634Z,997.29
2018-09-01T14:01:46.775Z,997.32
2018-09-01T14:02:47.073Z,997.39
2018-09-01T14:03:47.236Z,997.36
2018-09-01T14:04:47.459Z,997.35
2018-09-01T14:05:47.615Z,997.34
2018-09-01T14:06:47.737Z,997.31
2018-09-01T14:07:47.951Z,997.28
2018-09-01T14:08:48.067Z,997.21
2018-09-01T14:09:48.276Z,997.24
2018-09-01T14:10:48.558Z,997.25
2018-09-01T14:11:48.689Z,997.27
2018-09-01T14:12:48.948Z,997.28
2018-09-01T14:13:49.060Z,997.22
2018-09-01T14:14:49.418Z,997.25
2018-09-01T14:15:49.423Z,997.26
2018-09-01T14:16:49.607Z,997.24
2018-09-01T14:17:49.782Z,997.20
2018-09-01T14:18:49.989Z,997.22
2018-09-01T14:19:50.218Z,997.20
2018-09-01T14:20:50.386Z,997.25
2018-09-01T14:21:50.564Z,997.23
2018-09-01T14:22:50.740Z,997.23
2018-09-01T14:23:50.893Z,997.21
2018-09-01T14:24:51.115Z,997.27
2018-09-01T14:25:51.241Z,997.25
2018-09-01T14:26:51.436Z,997.22
2018-09-01T14:27:51.569Z,997.25
2018-09-01T14:28:51.855Z,997.23
2018-09-01T14:29:52.065Z,997.28
2018-09-01T14:30:52.183Z,997.26
2018-09-01T14:31:52.353Z,997.24
2018-09-01T14:32:52.565Z,997.24
2018-09-01T14:33:52.724Z,997.25
2018-09-01T14:34:52.891Z,997.27
2018-09-01T14:35:53.090Z,997.24
2018-09-01T14:36:53.249Z,997.23
2018-09-01T14:37:53.478Z,997.23
2018-09-01T14:38:53.655Z,997.22
2018-09-01T14:39:53.895Z,997.25
2018-09-01T14:40:54.036Z,997.22
2018-09-01T14:41:54.295Z,997.21
2018-09-01T14:42:54.438Z,997.20
2018-09-01T14:43:54.691Z,997.19
2018-09-01T14:44:54.804Z,997.16
2018-09-01T14:45:55.035Z,997.11
2018-09-01T14:46:55.165Z,997.10
2018-09-01T14:47:55.418Z,997.13
2018-09-01T14:48:55.569Z,997.13
2018-09-01T14:49:55.775Z,997.18
2018-09-01T14:50:55.929Z,997.12
2018-09-01T14:51:56.149Z,997.13
2018-09-01T14:52:56.327Z,997.11
2018-09-01T14:53:56.539Z,997.07
2018-09-01T14:54:56.715Z,997.04
2018-09-01T14:55:56.817Z,997.05
2018-09-01T14:56:57.075Z,997.07
2018-09-01T14:57:57.322Z,997.12
2018-09-01T14:58:57.479Z,997.10
2018-09-01T14:59:57.655Z,997.09
2018-09-01T15:00:57.803Z,997.13
2018-09-01T15:01:58.870Z,997.11
2018-09-01T15:02:58.099Z,997.15
2018-09-01T15:03:58.296Z,997.11
2018-09-01T15:04:58.560Z,997.07
2018-09-01T15:05:58.713Z,997.11
2018-09-01T15:06:58.951Z,997.11
2018-09-01T15:07:59.037Z,997.11
2018-09-01T15:08:59.254Z,997.17
2018-09-01T15:09:59.399Z,997.17
2018-09-01T15:10:59.593Z,997.16
2018-09-01T15:11:59.819Z,997.17
2018-09-01T15:13:00.034Z,997.15
2018-09-01T15:14:00.215Z,997.14
2018-09-01T15:15:00.342Z,997.14
2018-09-01T15:16:00.451Z,997.17
2018-09-01T15:17:00.679Z,997.17
2018-09-01T15:18:00.824Z,997.23
2018-09-01T15:19:01.070Z,997.20
2018-09-01T15:20:01.472Z,997.22
2018-09-01T15:21:01.421Z,997.20
2018-09-01T15:22:01.677Z,997.18
2018-09-01T15:23:01.845Z,997.23
2018-09-01T15:24:02.243Z,997.15
2018-09-01T15:25:02.122Z,997.10
2018-09-01T15:26:02.306Z,997.08
2018-09-01T15:27:02.485Z,997.06
2018-09-01T15:28:02.665Z,997.06
2018-09-01T15:29:02.830Z,997.12
2018-09-01T15:30:02.983Z,997.13
2018-09-01T15:31:03.157Z,997.07
2018-09-01T15:32:03.365Z,997.13
2018-09-01T15:33:03.624Z,997.12
2018-09-01T15:34:03.710Z,997.23
2018-09-01T15:35:03.865Z,997.18
2018-09-01T15:36:04.085Z,997.17
2018-09-01T15:37:04.281Z,997.16
2018-09-01T15:38:04.490Z,997.18
2018-09-01T15:39:04.691Z,997.15
2018-09-01T15:40:04.795Z,997.17
2018-09-01T15:41:05.024Z,997.14
2018-09-01T15:42:05.229Z,997.17
2018-09-01T15:43:05.387Z,997.16
2018-09-01T15:44:05.596Z,997.15
2018-09-01T15:45:05.745Z,997.22
2018-09-01T15:46:05.961Z,997.21
2018-09-01T15:47:06.015Z,997.18
2018-09-01T15:48:06.324Z,997.20
2018-09-01T15:49:06.410Z,997.20
2018-09-01T15:50:06.610Z,997.22
2018-09-01T15:51:06.811Z,997.21
2018-09-01T15:52:06.952Z,997.22
2018-09-01T15:53:07.128Z,997.11
2018-09-01T15:54:07.393Z,997.08
2018-09-01T15:55:07.502Z,997.06
2018-09-01T15:56:07.671Z,997.04
2018-09-01T15:57:07.905Z,997.05
2018-09-01T15:58:08.034Z,997.04
2018-09-01T15:59:08.210Z,997.06
2018-09-01T16:00:08.406Z,997.05
2018-09-01T16:01:08.569Z,997.07
2018-09-01T16:02:09.390Z,997.04